createdAt,value
2019-03-12T00:02:21.071Z,1.75
2019-03-12T00:04:56.332Z,1.83
2019-03-12T00:07:29.076Z,1.80
2019-03-12T00:10:01.130Z,1.82
2019-03-12T00:12:34.309Z,1.85
2019-03-12T00:15:07.341Z,1.94
2019-03-12T00:17:40.091Z,1.77
2019-03-12T00:20:14.180Z,1.33
2019-03-12T00:22:47.179Z,1.71
2019-03-12T00:25:19.172Z,1.74
2019-03-12T00:27:52.330Z,1.72
2019-03-12T00:30:25.321Z,1.70
2019-03-12T00:32:58.325Z,1.78
2019-03-12T00:35:30.294Z,1.84
2019-03-12T00:38:04.312Z,1.79
2019-03-12T00:40:37.276Z,1.80
2019-03-12T00:43:09.294Z,1.69
2019-03-12T00:45:41.275Z,1.79
2019-03-12T00:48:14.463Z,1.69
2019-03-12T00:50:46.418Z,1.76
2019-03-12T00:53:19.882Z,1.69
2019-03-12T00:55:54.473Z,1.72
2019-03-12T00:58:29.998Z,1.64
2019-03-12T01:01:02.972Z,1.61
2019-03-12T01:03:36.102Z,1.61
2019-03-12T01:06:08.798Z,1.61
2019-03-12T01:08:42.480Z,1.62
2019-03-12T01:14:40.742Z,1.59
2019-03-12T01:17:13.578Z,1.57
2019-03-12T01:19:46.346Z,1.54
2019-03-12T01:25:56.603Z,1.59
2019-03-12T01:28:29.692Z,1.58
2019-03-12T01:31:01.599Z,1.65
2019-03-12T01:33:35.611Z,1.71
2019-03-12T01:36:07.550Z,1.62
2019-03-12T01:38:39.512Z,1.62
2019-03-12T01:41:11.751Z,1.73
2019-03-12T01:43:43.117Z,1.61
2019-03-12T01:46:15.845Z,1.62
2019-03-12T01:48:47.799Z,1.67
2019-03-12T01:51:20.947Z,1.59
2019-03-12T01:53:52.634Z,1.66
2019-03-12T01:56:24.804Z,1.66
2019-03-12T01:58:56.011Z,1.56
2019-03-12T02:01:28.675Z,1.56
2019-03-12T02:03:59.887Z,1.51
2019-03-12T02:06:32.232Z,1.52
2019-03-12T02:09:08.299Z,1.56
2019-03-12T02:11:40.177Z,1.51
2019-03-12T02:14:27.814Z,1.57
2019-03-12T02:17:01.767Z,1.62
2019-03-12T02:19:34.950Z,1.58
2019-03-12T02:22:09.545Z,1.48
2019-03-12T02:24:52.070Z,1.58
2019-03-12T02:27:18.589Z,1.62
2019-03-12T02:29:50.279Z,1.60
2019-03-12T02:32:23.155Z,1.61
2019-03-12T02:34:55.877Z,1.59
2019-03-12T02:37:29.645Z,1.59
2019-03-12T02:40:00.859Z,1.55
2019-03-12T02:42:32.090Z,1.56
2019-03-12T02:45:04.550Z,1.58
2019-03-12T02:47:35.893Z,1.53
2019-03-12T02:50:09.215Z,1.60
2019-03-12T02:52:40.918Z,1.62
2019-03-12T02:55:13.267Z,1.64
2019-03-12T02:57:46.925Z,1.71
2019-03-12T03:00:23.267Z,1.61
2019-03-12T03:02:54.423Z,1.63
2019-03-12T03:05:26.445Z,1.61
2019-03-12T03:08:00.629Z,1.61
2019-03-12T03:10:34.078Z,1.64
2019-03-12T03:13:07.368Z,1.55
2019-03-12T03:15:42.535Z,1.60
2019-03-12T03:18:16.406Z,1.53
2019-03-12T03:20:49.189Z,1.47
2019-03-12T03:23:22.181Z,1.56
2019-03-12T03:25:55.074Z,1.61
2019-03-12T03:28:28.077Z,1.61
2019-03-12T03:31:01.049Z,1.70
2019-03-12T03:33:34.030Z,1.66
2019-03-12T03:36:07.034Z,1.72
2019-03-12T03:38:39.988Z,1.82
2019-03-12T03:41:13.124Z,1.85
2019-03-12T03:43:46.187Z,1.98
2019-03-12T03:46:19.687Z,1.98
2019-03-12T03:48:52.294Z,1.85
2019-03-12T03:51:25.592Z,2.04
2019-03-12T03:53:58.274Z,1.85
2019-03-12T03:56:31.245Z,1.96
2019-03-12T03:59:04.254Z,1.88
2019-03-12T04:01:37.239Z,1.90
2019-03-12T04:04:10.739Z,2.11
2019-03-12T04:06:43.199Z,1.92
2019-03-12T04:09:16.312Z,2.00
2019-03-12T04:11:49.650Z,1.94
2019-03-12T04:14:22.311Z,1.97
2019-03-12T04:16:54.638Z,1.96
2019-03-12T04:19:28.676Z,2.01
2019-03-12T04:22:01.169Z,2.05
2019-03-12T04:24:34.460Z,2.12
2019-03-12T04:27:07.765Z,2.05
2019-03-12T04:29:39.547Z,2.14
2019-03-12T04:32:12.348Z,2.01
2019-03-12T04:34:44.002Z,1.97
2019-03-12T04:37:15.934Z,1.88
2019-03-12T04:39:49.531Z,1.93
2019-03-12T04:42:21.496Z,1.94
2019-03-12T04:44:52.756Z,2.02
2019-03-12T04:47:25.995Z,2.04
2019-03-12T04:49:58.294Z,2.05
2019-03-12T04:52:31.275Z,2.09
2019-03-12T04:55:06.644Z,2.00
2019-03-12T04:57:40.352Z,2.17
2019-03-12T05:00:15.805Z,2.10
2019-03-12T05:02:49.497Z,2.09
2019-03-12T05:05:20.934Z,2.05
2019-03-12T05:07:52.607Z,2.12
2019-03-12T05:10:26.088Z,2.14
2019-03-12T05:12:58.637Z,2.16
2019-03-12T05:15:31.633Z,2.11
2019-03-12T05:18:04.990Z,2.07
2019-03-12T05:20:37.743Z,2.04
2019-03-12T05:23:10.828Z,2.08
2019-03-12T05:25:43.224Z,2.03
2019-03-12T05:28:16.589Z,2.06
2019-03-12T05:30:49.690Z,2.10
2019-03-12T05:33:22.632Z,2.16
2019-03-12T05:35:55.644Z,2.16
2019-03-12T05:38:29.319Z,2.22
2019-03-12T05:41:00.820Z,2.13
2019-03-12T05:43:33.801Z,2.12
2019-03-12T05:46:07.877Z,2.11
2019-03-12T05:48:41.058Z,2.29
2019-03-12T05:51:13.745Z,2.24
2019-03-12T05:53:50.232Z,2.22
2019-03-12T05:56:22.722Z,2.38
2019-03-12T05:58:55.731Z,2.22
2019-03-12T06:01:28.568Z,2.21
2019-03-12T06:03:59.793Z,2.15
2019-03-12T06:06:32.038Z,2.04
2019-03-12T06:09:06.334Z,2.13
2019-03-12T06:11:37.925Z,2.22
2019-03-12T06:14:10.976Z,2.16
2019-03-12T06:16:43.557Z,2.11
2019-03-12T06:19:15.349Z,2.22
2019-03-12T06:21:46.978Z,2.10
2019-03-12T06:24:19.876Z,2.25
2019-03-12T06:26:52.964Z,2.09
2019-03-12T06:29:25.882Z,1.98
2019-03-12T06:32:09.734Z,1.99
2019-03-12T06:35:05.003Z,2.02
2019-03-12T06:37:46.516Z,2.01
2019-03-12T06:40:45.166Z,1.99
2019-03-12T06:43:41.096Z,1.81
2019-03-12T06:46:29.628Z,1.80
2019-03-12T06:49:14.744Z,1.92
2019-03-12T06:52:06.009Z,2.00
2019-03-12T06:54:43.802Z,2.08
2019-03-12T06:57:49.029Z,2.13
2019-03-12T07:00:33.690Z,2.14
2019-03-12T07:03:30.109Z,2.23
2019-03-12T07:06:20.588Z,2.22
2019-03-12T07:09:21.682Z,2.18
2019-03-12T07:12:06.819Z,2.25
2019-03-12T07:14:55.326Z,2.27
2019-03-12T07:18:03.755Z,2.11
2019-03-12T07:20:46.770Z,1.87
2019-03-12T07:23:56.138Z,1.93
2019-03-12T07:26:37.441Z,1.91
2019-03-12T07:29:33.281Z,2.01
2019-03-12T07:32:27.146Z,2.08
2019-03-12T07:35:25.584Z,2.07
2019-03-12T07:38:15.554Z,2.14
2019-03-12T07:41:25.238Z,2.14
2019-03-12T07:44:08.690Z,2.13
2019-03-12T07:47:00.219Z,2.20
2019-03-12T07:49:47.852Z,2.33
2019-03-12T07:52:46.806Z,2.34
2019-03-12T07:55:51.206Z,2.61
2019-03-12T07:58:47.710Z,2.77
2019-03-12T08:01:41.123Z,2.86
2019-03-12T08:04:27.162Z,2.80
2019-03-12T08:07:26.413Z,2.64
2019-03-12T08:10:08.476Z,2.55
2019-03-12T08:13:07.623Z,2.53
2019-03-12T08:16:00.659Z,2.54
2019-03-12T08:18:47.461Z,2.60
2019-03-12T08:21:42.435Z,2.74
2019-03-12T08:24:51.704Z,2.81
2019-03-12T08:27:45.120Z,2.77
2019-03-12T08:30:34.091Z,2.64
2019-03-12T08:33:24.763Z,2.84
2019-03-12T08:36:03.181Z,2.72
2019-03-12T08:38:56.660Z,2.58
2019-03-12T08:41:54.123Z,2.84
2019-03-12T08:44:58.909Z,2.77
2019-03-12T08:47:49.262Z,2.62
2019-03-12T08:50:44.822Z,2.77
2019-03-12T08:53:41.617Z,2.82
2019-03-12T08:56:33.494Z,2.79
2019-03-12T08:59:29.364Z,2.96
2019-03-12T09:02:22.361Z,2.73
2019-03-12T09:05:13.415Z,2.77
2019-03-12T09:07:59.501Z,2.83
2019-03-12T09:10:41.244Z,2.72
2019-03-12T09:13:27.226Z,2.76
2019-03-12T09:16:22.325Z,2.63
2019-03-12T09:19:13.449Z,2.93
2019-03-12T09:22:14.744Z,2.91
2019-03-12T09:25:11.872Z,2.89
2019-03-12T09:28:25.279Z,2.91
2019-03-12T09:31:25.416Z,2.91
2019-03-12T09:34:16.963Z,3.02
2019-03-12T09:37:16.264Z,2.93
2019-03-12T09:40:13.448Z,3.04
2019-03-12T09:43:07.382Z,2.85
2019-03-12T09:45:52.899Z,2.92
2019-03-12T09:48:50.080Z,2.98
2019-03-12T09:51:30.440Z,2.91
2019-03-12T09:54:19.564Z,3.08
2019-03-12T09:57:09.130Z,2.96
2019-03-12T10:00:14.959Z,3.00
2019-03-12T10:02:57.591Z,3.15
2019-03-12T10:05:36.584Z,3.44
2019-03-12T10:08:25.666Z,3.47
2019-03-12T10:11:10.685Z,3.53
2019-03-12T10:13:58.577Z,3.42
2019-03-12T10:16:53.933Z,3.42
2019-03-12T10:19:48.311Z,3.43
2019-03-12T10:22:34.481Z,3.22
2019-03-12T10:25:17.001Z,3.34
2019-03-12T10:27:59.532Z,3.48
2019-03-12T10:31:04.901Z,3.50
2019-03-12T10:33:59.617Z,3.25
2019-03-12T10:36:49.857Z,3.27
2019-03-12T10:40:17.571Z,3.39
2019-03-12T10:43:21.567Z,3.24
2019-03-12T10:46:21.228Z,3.34
2019-03-12T10:48:53.104Z,3.51
2019-03-12T10:51:26.527Z,3.50
2019-03-12T10:53:59.085Z,3.42
2019-03-12T10:56:32.946Z,3.97
2019-03-12T10:59:06.135Z,4.06
2019-03-12T11:01:38.402Z,4.08
2019-03-12T11:04:12.752Z,3.99
2019-03-12T11:06:47.256Z,4.09
2019-03-12T11:09:20.175Z,4.14
2019-03-12T11:11:51.837Z,3.95
2019-03-12T11:14:25.109Z,3.76
2019-03-12T11:16:58.238Z,3.75
2019-03-12T11:19:29.454Z,3.53
2019-03-12T11:22:03.238Z,3.42
2019-03-12T11:24:35.149Z,3.42
2019-03-12T11:27:08.453Z,3.49
2019-03-12T11:29:41.217Z,3.37
2019-03-12T11:32:14.121Z,3.41
2019-03-12T11:34:47.421Z,3.44
2019-03-12T11:37:20.716Z,3.54
2019-03-12T11:39:54.981Z,3.55
2019-03-12T11:42:29.766Z,3.49
2019-03-12T11:45:13.132Z,3.57
2019-03-12T11:47:39.840Z,3.62
2019-03-12T11:50:15.837Z,3.64
2019-03-12T11:52:54.138Z,3.78
2019-03-12T11:55:21.846Z,3.93
2019-03-12T11:57:53.461Z,4.16
2019-03-12T12:00:30.662Z,4.17
2019-03-12T12:03:02.401Z,4.49
2019-03-12T12:05:33.777Z,4.95
2019-03-12T12:08:05.507Z,5.32
2019-03-12T12:10:37.927Z,5.28
2019-03-12T12:13:09.502Z,5.48
2019-03-12T12:15:41.526Z,5.23
2019-03-12T12:18:14.295Z,5.65
2019-03-12T12:20:47.474Z,5.82
2019-03-12T12:23:20.492Z,5.67
2019-03-12T12:25:53.526Z,6.81
2019-03-12T12:28:26.626Z,6.55
2019-03-12T12:30:58.690Z,6.64
2019-03-12T12:33:30.608Z,6.65
2019-03-12T12:36:02.549Z,6.51
2019-03-12T12:38:35.586Z,5.90
2019-03-12T12:41:08.639Z,6.21
2019-03-12T12:43:44.075Z,6.50
2019-03-12T12:46:16.000Z,6.56
2019-03-12T12:48:47.748Z,6.02
2019-03-12T12:51:21.751Z,5.66
2019-03-12T12:53:53.706Z,5.47
2019-03-12T12:56:27.601Z,5.79
2019-03-12T12:58:59.666Z,5.90
2019-03-12T13:01:32.588Z,5.66
2019-03-12T13:04:06.406Z,5.39
2019-03-12T13:06:39.304Z,5.38
2019-03-12T13:09:15.322Z,5.23
2019-03-12T13:11:48.589Z,4.78
2019-03-12T13:14:23.307Z,4.40
2019-03-12T13:16:57.681Z,4.52
2019-03-12T13:19:30.480Z,4.42
2019-03-12T13:22:02.132Z,4.67
2019-03-12T13:24:35.571Z,4.80
2019-03-12T13:27:09.018Z,4.91
2019-03-12T13:29:41.736Z,5.00
2019-03-12T13:32:14.097Z,4.95
2019-03-12T13:34:47.691Z,4.91
2019-03-12T13:37:21.813Z,4.78
2019-03-12T13:39:56.080Z,5.06
2019-03-12T13:42:29.848Z,4.95
2019-03-12T13:45:02.268Z,4.92
2019-03-12T13:47:34.781Z,4.85
2019-03-12T13:50:08.899Z,5.05
2019-03-12T13:52:42.708Z,4.91
2019-03-12T13:55:15.522Z,4.83
2019-03-12T13:57:47.898Z,4.67
2019-03-12T14:00:22.227Z,4.44
2019-03-12T14:02:55.946Z,4.35
2019-03-12T14:05:28.936Z,4.40
2019-03-12T14:08:01.966Z,4.50
2019-03-12T14:10:35.127Z,4.35
2019-03-12T14:13:08.154Z,4.51
2019-03-12T14:15:40.903Z,4.55
2019-03-12T14:18:14.098Z,4.55
2019-03-12T14:20:49.093Z,4.38
2019-03-12T14:23:49.985Z,4.47
2019-03-12T14:26:23.017Z,4.47
2019-03-12T14:28:55.931Z,4.56
2019-03-12T14:31:29.215Z,4.68
2019-03-12T14:34:02.161Z,4.61
2019-03-12T14:36:35.087Z,4.72
2019-03-12T14:39:08.392Z,4.73
2019-03-12T14:41:43.718Z,4.74
2019-03-12T14:44:17.599Z,4.72
2019-03-12T14:46:51.017Z,4.66
2019-03-12T14:49:24.058Z,4.67
2019-03-12T14:52:01.121Z,4.74
2019-03-12T14:54:35.960Z,4.87
2019-03-12T14:57:08.061Z,4.90
2019-03-12T14:59:42.062Z,4.70
2019-03-12T15:02:14.505Z,4.61
2019-03-12T15:04:48.741Z,4.49
2019-03-12T15:07:25.711Z,4.57
2019-03-12T15:09:59.663Z,4.51
2019-03-12T15:12:32.735Z,4.57
2019-03-12T15:15:06.249Z,4.54
2019-03-12T15:17:38.388Z,4.73
2019-03-12T15:20:11.621Z,4.64
2019-03-12T15:22:44.298Z,4.78
2019-03-12T15:25:20.015Z,4.51
2019-03-12T15:27:53.868Z,4.69
2019-03-12T15:30:26.955Z,4.78
2019-03-12T15:32:59.446Z,4.37
2019-03-12T15:35:33.326Z,4.60
2019-03-12T15:38:05.687Z,4.76
2019-03-12T15:40:38.657Z,5.12
2019-03-12T15:43:11.581Z,5.52
2019-03-12T15:45:44.067Z,6.39
2019-03-12T15:48:21.526Z,7.41
2019-03-12T15:50:53.539Z,8.48
2019-03-12T15:53:26.534Z,8.95
2019-03-12T15:56:00.097Z,9.06
2019-03-12T15:58:34.111Z,8.22
2019-03-12T16:01:06.202Z,8.14
2019-03-12T16:03:41.712Z,8.46
2019-03-12T16:06:14.454Z,8.39
2019-03-12T16:08:47.437Z,9.06
2019-03-12T16:11:20.557Z,9.41
2019-03-12T16:13:53.427Z,8.21
2019-03-12T16:16:25.595Z,8.50
2019-03-12T16:18:57.567Z,8.35
2019-03-12T16:21:31.575Z,8.09
2019-03-12T16:24:04.143Z,7.57
2019-03-12T16:26:38.219Z,7.23
2019-03-12T16:29:10.687Z,6.98
2019-03-12T16:31:44.931Z,6.58
2019-03-12T16:34:16.868Z,6.37
2019-03-12T16:36:50.873Z,5.93
2019-03-12T16:39:24.665Z,5.75
2019-03-12T16:41:56.676Z,5.60
2019-03-12T16:44:29.593Z,5.65
2019-03-12T16:47:03.630Z,5.55
2019-03-12T16:49:36.107Z,5.26
2019-03-12T16:52:08.717Z,4.97
2019-03-12T16:54:40.701Z,4.92
2019-03-12T16:57:14.678Z,4.92
2019-03-12T16:59:48.150Z,4.91
2019-03-12T17:02:21.359Z,4.80
2019-03-12T17:04:55.429Z,4.47
2019-03-12T17:07:29.492Z,4.39
2019-03-12T17:10:02.806Z,4.34
2019-03-12T17:12:35.967Z,4.25
2019-03-12T17:15:10.254Z,4.17
2019-03-12T17:17:42.800Z,4.13
2019-03-12T17:20:16.261Z,3.99
2019-03-12T17:22:47.888Z,3.89
2019-03-12T17:25:20.875Z,3.75
2019-03-12T17:27:54.079Z,3.47
2019-03-12T17:30:27.099Z,3.52
2019-03-12T17:33:00.051Z,3.49
2019-03-12T17:35:33.807Z,3.42
2019-03-12T17:38:05.881Z,3.22
2019-03-12T17:40:37.998Z,3.25
2019-03-12T17:43:11.886Z,3.31
2019-03-12T17:45:44.323Z,3.33
2019-03-12T17:48:16.535Z,3.30
2019-03-12T17:50:47.896Z,3.32
2019-03-12T17:53:21.162Z,3.26
2019-03-12T17:55:55.795Z,3.20
2019-03-12T17:58:27.002Z,3.17
2019-03-12T18:01:00.142Z,3.11
2019-03-12T18:03:33.012Z,2.98
2019-03-12T18:06:06.232Z,2.93
2019-03-12T18:08:39.169Z,2.85
2019-03-12T18:11:12.248Z,2.83
2019-03-12T18:13:44.263Z,2.84
2019-03-12T18:16:18.183Z,2.91
2019-03-12T18:18:51.122Z,2.78
2019-03-12T18:21:24.113Z,2.74
2019-03-12T18:23:58.068Z,2.69
2019-03-12T18:26:31.200Z,2.62
2019-03-12T18:29:03.204Z,2.61
2019-03-12T18:31:36.174Z,2.53
2019-03-12T18:34:09.358Z,2.51
2019-03-12T18:36:42.171Z,2.47
2019-03-12T18:39:15.394Z,2.48
2019-03-12T18:41:48.307Z,2.41
2019-03-12T18:44:34.592Z,2.39
2019-03-12T18:47:08.160Z,2.29
2019-03-12T18:49:41.272Z,2.25
2019-03-12T18:52:15.348Z,2.17
2019-03-12T18:54:48.353Z,2.21
2019-03-12T18:57:21.312Z,2.14
2019-03-12T18:59:55.959Z,2.09
2019-03-12T19:02:31.558Z,1.93
2019-03-12T19:05:07.340Z,1.93
2019-03-12T19:07:43.119Z,1.87
2019-03-12T19:10:17.084Z,1.83
2019-03-12T19:12:51.394Z,1.73
2019-03-12T19:15:25.819Z,1.70
2019-03-12T19:18:01.019Z,1.64
2019-03-12T19:20:33.224Z,1.59
2019-03-12T19:23:06.504Z,1.61
2019-03-12T19:25:40.490Z,1.51
2019-03-12T19:28:14.770Z,1.46
2019-03-12T19:30:47.556Z,1.51
2019-03-12T19:33:22.970Z,1.48
2019-03-12T19:35:56.530Z,1.42
2019-03-12T19:38:29.582Z,1.32
2019-03-12T19:41:01.571Z,1.36
2019-03-12T19:43:34.563Z,1.39
2019-03-12T19:46:08.616Z,1.32
2019-03-12T19:48:41.533Z,1.35
2019-03-12T19:51:14.668Z,1.25
2019-03-12T19:53:47.646Z,0.61
2019-03-12T19:56:20.534Z,0.80
2019-03-12T19:58:53.857Z,0.81
2019-03-12T20:01:29.524Z,0.85
2019-03-12T20:04:03.246Z,0.88
2019-03-12T20:06:35.700Z,0.93
2019-03-12T20:09:10.356Z,0.96
2019-03-12T20:12:14.694Z,0.96
2019-03-12T20:15:34.069Z,0.88
2019-03-12T20:18:54.513Z,0.82
2019-03-12T20:22:16.295Z,0.81
2019-03-12T20:25:35.233Z,0.79
2019-03-12T20:28:49.050Z,0.82
2019-03-12T20:32:08.577Z,0.79
2019-03-12T20:35:37.224Z,0.80
2019-03-12T20:39:00.611Z,0.74
2019-03-12T20:42:14.752Z,0.70
2019-03-12T20:45:39.443Z,0.66
2019-03-12T20:49:10.423Z,0.64
2019-03-12T20:52:40.123Z,0.60
2019-03-12T20:55:48.484Z,0.63
2019-03-12T20:59:31.508Z,0.62
2019-03-12T21:02:42.654Z,0.36
2019-03-12T21:06:05.291Z,0.47
2019-03-12T21:09:14.263Z,0.49
2019-03-12T21:12:29.369Z,0.46
2019-03-12T21:16:00.019Z,0.47
2019-03-12T21:19:10.253Z,0.49
2019-03-12T21:22:03.926Z,0.43
2019-03-12T21:25:31.692Z,0.36
2019-03-12T21:28:38.466Z,0.34
2019-03-12T21:31:14.818Z,0.27
2019-03-12T21:33:45.247Z,0.21
2019-03-12T21:36:18.189Z,0.24
2019-03-12T21:38:51.110Z,0.27
2019-03-12T21:41:23.090Z,0.27
2019-03-12T21:43:55.646Z,0.17
2019-03-12T21:46:27.722Z,0.14
2019-03-12T21:49:00.125Z,0.14
2019-03-12T21:51:35.730Z,0.11
2019-03-12T21:54:08.953Z,0.09
2019-03-12T21:56:42.176Z,0.10
2019-03-12T21:59:15.136Z,0.06
2019-03-12T22:01:48.058Z,0.11
2019-03-12T22:04:22.106Z,0.18
2019-03-12T22:06:54.575Z,0.20
2019-03-12T22:09:28.118Z,0.23
2019-03-12T22:12:01.873Z,0.14
2019-03-12T22:14:37.653Z,0.16
2019-03-12T22:17:09.259Z,0.21
2019-03-12T22:19:41.708Z,0.20
2019-03-12T22:22:29.128Z,0.22
2019-03-12T22:25:03.586Z,0.22
2019-03-12T22:27:36.254Z,0.19
2019-03-12T22:30:13.114Z,0.24
2019-03-12T22:32:44.575Z,0.19
2019-03-12T22:35:18.094Z,0.29
2019-03-12T22:37:52.187Z,0.33
2019-03-12T22:40:24.296Z,0.41
2019-03-12T22:42:57.274Z,0.44
2019-03-12T22:45:30.419Z,0.22
2019-03-12T22:48:03.331Z,0.32
2019-03-12T22:50:36.252Z,0.39
2019-03-12T22:53:09.616Z,0.44
2019-03-12T22:55:42.435Z,0.49
2019-03-12T22:58:15.194Z,0.58
2019-03-12T23:00:48.992Z,0.56
2019-03-12T23:03:21.595Z,0.63
2019-03-12T23:05:54.492Z,0.58
2019-03-12T23:08:28.095Z,0.62
2019-03-12T23:11:01.311Z,0.66
2019-03-12T23:13:33.693Z,0.59
2019-03-12T23:16:06.434Z,0.54
2019-03-12T23:18:39.432Z,0.47
2019-03-12T23:21:12.665Z,0.45
2019-03-12T23:23:44.574Z,0.48
2019-03-12T23:26:19.073Z,0.44
2019-03-12T23:28:51.605Z,0.43
2019-03-12T23:31:27.043Z,0.43
2019-03-12T23:34:00.553Z,0.46
2019-03-12T23:36:34.483Z,0.42
2019-03-12T23:39:07.941Z,0.47
2019-03-12T23:41:39.921Z,0.28
2019-03-12T23:44:12.474Z,0.34
2019-03-12T23:46:43.718Z,0.37
2019-03-12T23:49:17.251Z,0.43
2019-03-12T23:51:48.449Z,0.40
2019-03-12T23:54:21.334Z,0.43
2019-03-12T23:56:54.600Z,0.20
2019-03-12T23:59:30.009Z,0.27
